sensor_id;sensor_type;location;lat;lon;timestamp;pressure;altitude;pressure_sealevel;temperature;humidity
70954;BME280;58618;47.490;8.736;2023-08-12T00:02:12;96888.09;;;16.46;100.00
70954;BME280;58618;47.490;8.736;2023-08-12T00:05:00;96891.47;;;16.47;100.00
70954;BME280;58618;47.490;8.736;2023-08-12T00:07:48;96881.94;;;16.42;100.00
70954;BME280;58618;47.490;8.736;2023-08-12T00:10:36;96876.75;;;16.42;100.00
70954;BME280;58618;47.490;8.736;2023-08-12T00:13:23;96881.59;;;16.35;100.00
70954;BME280;58618;47.490;8.736;2023-08-12T00:16:10;96880.53;;;16.36;100.00
70954;BME280;58618;47.490;8.736;2023-08-12T00:18:58;96876.66;;;16.25;100.00
70954;BME280;58618;47.490;8.736;2023-08-12T00:21:48;96877.84;;;16.19;100.00
70954;BME280;58618;47.490;8.736;2023-08-12T00:24:36;96873.25;;;16.16;100.00
70954;BME280;58618;47.490;8.736;2023-08-12T00:27:24;96874.59;;;16.14;100.00
70954;BME280;58618;47.490;8.736;2023-08-12T00:30:11;96874.91;;;16.12;100.00
70954;BME280;58618;47.490;8.736;2023-08-12T00:32:58;96878.09;;;16.09;100.00
70954;BME280;58618;47.490;8.736;2023-08-12T00:35:46;96881.97;;;16.12;100.00
70954;BME280;58618;47.490;8.736;2023-08-12T00:38:34;96877.16;;;16.05;100.00
70954;BME280;58618;47.490;8.736;2023-08-12T00:41:22;96873.06;;;16.13;100.00
70954;BME280;58618;47.490;8.736;2023-08-12T00:44:09;96876.91;;;16.15;100.00
70954;BME280;58618;47.490;8.736;2023-08-12T00:46:56;96875.97;;;16.11;100.00
70954;BME280;58618;47.490;8.736;2023-08-12T00:49:44;96866.50;;;16.15;100.00
70954;BME280;58618;47.490;8.736;2023-08-12T00:52:31;96861.78;;;16.17;100.00
70954;BME280;58618;47.490;8.736;2023-08-12T00:55:20;96874.19;;;16.20;100.00
70954;BME280;58618;47.490;8.736;2023-08-12T00:58:08;96869.59;;;16.17;100.00
70954;BME280;58618;47.490;8.736;2023-08-12T01:00:56;96868.97;;;16.20;100.00
70954;BME280;58618;47.490;8.736;2023-08-12T01:03:43;96864.97;;;16.14;100.00
70954;BME280;58618;47.490;8.736;2023-08-12T01:06:31;96863.41;;;16.13;100.00
70954;BME280;58618;47.490;8.736;2023-08-12T01:09:19;96861.28;;;16.15;100.00
70954;BME280;58618;47.490;8.736;2023-08-12T01:12:12;96857.03;;;16.19;100.00
70954;BME280;58618;47.490;8.736;2023-08-12T01:15:04;96853.38;;;16.20;100.00
70954;BME280;58618;47.490;8.736;2023-08-12T01:17:55;96853.22;;;16.25;100.00
70954;BME280;58618;47.490;8.736;2023-08-12T01:20:43;96855.19;;;16.20;100.00
70954;BME280;58618;47.490;8.736;2023-08-12T01:23:32;96855.53;;;16.27;100.00
70954;BME280;58618;47.490;8.736;2023-08-12T01:26:20;96854.28;;;16.24;100.00
70954;BME280;58618;47.490;8.736;2023-08-12T01:29:07;96853.53;;;16.24;100.00
70954;BME280;58618;47.490;8.736;2023-08-12T01:31:58;96856.75;;;16.29;100.00
70954;BME280;58618;47.490;8.736;2023-08-12T01:34:55;96846.97;;;16.26;100.00
70954;BME280;58618;47.490;8.736;2023-08-12T01:37:45;96855.25;;;16.28;100.00
70954;BME280;58618;47.490;8.736;2023-08-12T01:40:35;96846.22;;;16.34;100.00
70954;BME280;58618;47.490;8.736;2023-08-12T01:43:23;96842.69;;;16.30;100.00
70954;BME280;58618;47.490;8.736;2023-08-12T01:46:11;96850.41;;;16.44;100.00
70954;BME280;58618;47.490;8.736;2023-08-12T01:48:58;96841.84;;;16.43;100.00
70954;BME280;58618;47.490;8.736;2023-08-12T01:51:46;96845.03;;;16.40;100.00
70954;BME280;58618;47.490;8.736;2023-08-12T01:54:33;96836.75;;;16.38;100.00
70954;BME280;58618;47.490;8.736;2023-08-12T01:57:22;96843.19;;;16.41;100.00
70954;BME280;58618;47.490;8.736;2023-08-12T02:00:09;96835.09;;;16.42;100.00
70954;BME280;58618;47.490;8.736;2023-08-12T02:02:57;96840.28;;;16.42;100.00
70954;BME280;58618;47.490;8.736;2023-08-12T02:05:44;96844.88;;;16.45;100.00
70954;BME280;58618;47.490;8.736;2023-08-12T02:08:31;96847.97;;;16.47;100.00
70954;BME280;58618;47.490;8.736;2023-08-12T02:11:19;96847.34;;;16.51;100.00
70954;BME280;58618;47.490;8.736;2023-08-12T02:14:07;96838.47;;;16.52;100.00
70954;BME280;58618;47.490;8.736;2023-08-12T02:16:55;96840.94;;;16.57;100.00
70954;BME280;58618;47.490;8.736;2023-08-12T02:19:42;96837.88;;;16.55;100.00
70954;BME280;58618;47.490;8.736;2023-08-12T02:22:30;96836.34;;;16.54;100.00
70954;BME280;58618;47.490;8.736;2023-08-12T02:25:17;96832.22;;;16.53;100.00
70954;BME280;58618;47.490;8.736;2023-08-12T02:28:05;96827.91;;;16.57;100.00
70954;BME280;58618;47.490;8.736;2023-08-12T02:30:53;96830.72;;;16.60;100.00
70954;BME280;58618;47.490;8.736;2023-08-12T02:33:41;96825.31;;;16.57;100.00
70954;BME280;58618;47.490;8.736;2023-08-12T02:36:28;96823.00;;;16.55;100.00
70954;BME280;58618;47.490;8.736;2023-08-12T02:39:16;96824.25;;;16.49;100.00
70954;BME280;58618;47.490;8.736;2023-08-12T02:42:03;96818.84;;;16.45;100.00
70954;BME280;58618;47.490;8.736;2023-08-12T02:44:51;96828.50;;;16.45;100.00
70954;BME280;58618;47.490;8.736;2023-08-12T02:47:39;96813.91;;;16.35;100.00
70954;BME280;58618;47.490;8.736;2023-08-12T02:50:27;96822.97;;;16.38;100.00
70954;BME280;58618;47.490;8.736;2023-08-12T02:53:15;96819.13;;;16.35;100.00
70954;BME280;58618;47.490;8.736;2023-08-12T02:56:02;96822.78;;;16.34;100.00
70954;BME280;58618;47.490;8.736;2023-08-12T02:58:49;96816.50;;;16.35;100.00
70954;BME280;58618;47.490;8.736;2023-08-12T03:01:37;96820.66;;;16.36;100.00
70954;BME280;58618;47.490;8.736;2023-08-12T03:04:25;96826.03;;;16.40;100.00
70954;BME280;58618;47.490;8.736;2023-08-12T03:07:13;96821.13;;;16.38;100.00
70954;BME280;58618;47.490;8.736;2023-08-12T03:10:00;96818.97;;;16.40;100.00
70954;BME280;58618;47.490;8.736;2023-08-12T03:12:48;96817.78;;;16.46;100.00
70954;BME280;58618;47.490;8.736;2023-08-12T03:15:38;96826.53;;;16.51;100.00
70954;BME280;58618;47.490;8.736;2023-08-12T03:18:25;96818.25;;;16.48;100.00
70954;BME280;58618;47.490;8.736;2023-08-12T03:21:14;96821.66;;;16.58;100.00
70954;BME280;58618;47.490;8.736;2023-08-12T03:24:01;96823.47;;;16.57;100.00
70954;BME280;58618;47.490;8.736;2023-08-12T03:26:49;96818.00;;;16.59;100.00
70954;BME280;58618;47.490;8.736;2023-08-12T03:29:36;96815.84;;;16.61;100.00
70954;BME280;58618;47.490;8.736;2023-08-12T03:32:24;96810.06;;;16.64;100.00
70954;BME280;58618;47.490;8.736;2023-08-12T03:35:11;96823.72;;;16.69;100.00
70954;BME280;58618;47.490;8.736;2023-08-12T03:38:00;96819.84;;;16.67;100.00
70954;BME280;58618;47.490;8.736;2023-08-12T03:40:47;96823.22;;;16.59;100.00
70954;BME280;58618;47.490;8.736;2023-08-12T03:43:34;96818.41;;;16.52;100.00
70954;BME280;58618;47.490;8.736;2023-08-12T03:46:23;96818.56;;;16.56;100.00
70954;BME280;58618;47.490;8.736;2023-08-12T03:49:11;96815.84;;;16.61;100.00
70954;BME280;58618;47.490;8.736;2023-08-12T03:51:58;96818.00;;;16.59;100.00
70954;BME280;58618;47.490;8.736;2023-08-12T03:54:46;96818.00;;;16.59;100.00
70954;BME280;58618;47.490;8.736;2023-08-12T03:57:34;96829.34;;;16.63;100.00
70954;BME280;58618;47.490;8.736;2023-08-12T04:00:21;96832.44;;;16.65;100.00
70954;BME280;58618;47.490;8.736;2023-08-12T04:03:08;96828.28;;;16.64;100.00
70954;BME280;58618;47.490;8.736;2023-08-12T04:05:56;96834.91;;;16.70;100.00
70954;BME280;58618;47.490;8.736;2023-08-12T04:08:43;96829.69;;;16.70;100.00
70954;BME280;58618;47.490;8.736;2023-08-12T04:11:32;96813.91;;;16.75;100.00
70954;BME280;58618;47.490;8.736;2023-08-12T04:14:19;96809.00;;;16.73;100.00
70954;BME280;58618;47.490;8.736;2023-08-12T04:17:06;96811.16;;;16.88;100.00
70954;BME280;58618;47.490;8.736;2023-08-12T04:19:54;96813.31;;;16.95;100.00
70954;BME280;58618;47.490;8.736;2023-08-12T04:22:41;96818.06;;;16.93;100.00
70954;BME280;58618;47.490;8.736;2023-08-12T04:25:28;96810.25;;;16.93;100.00
70954;BME280;58618;47.490;8.736;2023-08-12T04:28:17;96820.06;;;17.05;100.00
70954;BME280;58618;47.490;8.736;2023-08-12T04:31:06;96816.72;;;17.13;100.00
70954;BME280;58618;47.490;8.736;2023-08-12T04:33:53;96821.16;;;17.12;100.00
70954;BME280;58618;47.490;8.736;2023-08-12T04:36:40;96815.19;;;17.12;100.00
70954;BME280;58618;47.490;8.736;2023-08-12T04:39:28;96810.59;;;17.17;100.00
70954;BME280;58618;47.490;8.736;2023-08-12T04:42:15;96816.56;;;17.26;100.00
70954;BME280;58618;47.490;8.736;2023-08-12T04:45:05;96809.66;;;17.30;100.00
70954;BME280;58618;47.490;8.736;2023-08-12T04:47:52;96811.34;;;17.44;100.00
70954;BME280;58618;47.490;8.736;2023-08-12T04:50:41;96809.19;;;17.46;100.00
70954;BME280;58618;47.490;8.736;2023-08-12T04:53:28;96826.84;;;17.49;100.00
70954;BME280;58618;47.490;8.736;2023-08-12T04:56:16;96826.84;;;17.49;100.00
70954;BME280;58618;47.490;8.736;2023-08-12T04:59:04;96826.50;;;17.50;100.00
70954;BME280;58618;47.490;8.736;2023-08-12T05:01:52;96818.38;;;17.52;100.00
70954;BME280;58618;47.490;8.736;2023-08-12T05:04:40;96814.09;;;17.56;100.00
70954;BME280;58618;47.490;8.736;2023-08-12T05:07:27;96820.69;;;17.62;100.00
70954;BME280;58618;47.490;8.736;2023-08-12T05:10:15;96828.22;;;17.72;100.00
70954;BME280;58618;47.490;8.736;2023-08-12T05:13:03;96816.69;;;17.73;100.00
70954;BME280;58618;47.490;8.736;2023-08-12T05:15:50;96824.38;;;17.87;100.00
70954;BME280;58618;47.490;8.736;2023-08-12T05:18:39;96809.13;;;17.97;100.00
70954;BME280;58618;47.490;8.736;2023-08-12T05:21:26;96817.06;;;18.09;100.00
70954;BME280;58618;47.490;8.736;2023-08-12T05:24:14;96819.16;;;18.25;100.00
70954;BME280;58618;47.490;8.736;2023-08-12T05:27:01;96833.22;;;18.41;100.00
70954;BME280;58618;47.490;8.736;2023-08-12T05:29:49;96829.19;;;18.52;100.00
70954;BME280;58618;47.490;8.736;2023-08-12T05:32:36;96821.38;;;18.81;100.00
70954;BME280;58618;47.490;8.736;2023-08-12T05:35:25;96831.50;;;19.87;100.00
70954;BME280;58618;47.490;8.736;2023-08-12T05:38:12;96831.88;;;20.94;100.00
70954;BME280;58618;47.490;8.736;2023-08-12T05:40:59;96814.94;;;21.72;100.00
70954;BME280;58618;47.490;8.736;2023-08-12T05:43:47;96820.03;;;22.24;100.00
70954;BME280;58618;47.490;8.736;2023-08-12T05:46:34;96824.16;;;23.07;100.00
70954;BME280;58618;47.490;8.736;2023-08-12T05:49:21;96818.63;;;23.31;100.00
70954;BME280;58618;47.490;8.736;2023-08-12T05:52:10;96828.97;;;22.86;100.00
70954;BME280;58618;47.490;8.736;2023-08-12T05:54:58;96834.00;;;22.12;100.00
70954;BME280;58618;47.490;8.736;2023-08-12T05:57:45;96826.66;;;21.90;100.00
70954;BME280;58618;47.490;8.736;2023-08-12T06:00:32;96828.59;;;21.49;100.00
70954;BME280;58618;47.490;8.736;2023-08-12T06:03:20;96819.63;;;21.51;100.00
70954;BME280;58618;47.490;8.736;2023-08-12T06:06:07;96836.97;;;21.67;100.00
70954;BME280;58618;47.490;8.736;2023-08-12T06:08:56;96834.53;;;21.46;100.00
70954;BME280;58618;47.490;8.736;2023-08-12T06:11:43;96844.25;;;21.74;100.00
70954;BME280;58618;47.490;8.736;2023-08-12T06:14:30;96831.53;;;23.36;100.00
70954;BME280;58618;47.490;8.736;2023-08-12T06:17:17;96840.91;;;24.63;100.00
70954;BME280;58618;47.490;8.736;2023-08-12T06:20:06;96832.72;;;24.00;100.00
70954;BME280;58618;47.490;8.736;2023-08-12T06:22:53;96830.41;;;23.18;100.00
70954;BME280;58618;47.490;8.736;2023-08-12T06:25:42;96834.44;;;22.96;100.00
70954;BME280;58618;47.490;8.736;2023-08-12T06:28:29;96837.22;;;22.53;100.00
70954;BME280;58618;47.490;8.736;2023-08-12T06:31:17;96827.69;;;23.34;100.00
70954;BME280;58618;47.490;8.736;2023-08-12T06:34:04;96831.44;;;24.13;100.00
70954;BME280;58618;47.490;8.736;2023-08-12T06:36:52;96835.22;;;25.14;100.00
70954;BME280;58618;47.490;8.736;2023-08-12T06:39:39;96836.34;;;27.22;100.00
70954;BME280;58618;47.490;8.736;2023-08-12T06:42:28;96836.50;;;29.14;79.69
70954;BME280;58618;47.490;8.736;2023-08-12T06:45:15;96831.97;;;29.11;78.98
70954;BME280;58618;47.490;8.736;2023-08-12T06:48:03;96829.75;;;28.91;78.15
70954;BME280;58618;47.490;8.736;2023-08-12T06:50:53;96827.38;;;30.46;66.50
70954;BME280;58618;47.490;8.736;2023-08-12T06:53:40;96829.97;;;30.09;66.39
70954;BME280;58618;47.490;8.736;2023-08-12T06:56:28;96829.69;;;30.44;67.28
70954;BME280;58618;47.490;8.736;2023-08-12T06:59:17;96826.34;;;32.76;55.64
70954;BME280;58618;47.490;8.736;2023-08-12T07:02:06;96823.41;;;31.97;57.63
70954;BME280;58618;47.490;8.736;2023-08-12T07:04:54;96819.03;;;33.20;52.57
70954;BME280;58618;47.490;8.736;2023-08-12T07:07:41;96825.63;;;30.77;65.53
70954;BME280;58618;47.490;8.736;2023-08-12T07:10:29;96825.31;;;30.20;64.62
70954;BME280;58618;47.490;8.736;2023-08-12T07:13:16;96823.94;;;30.01;65.63
70954;BME280;58618;47.490;8.736;2023-08-12T07:16:05;96822.19;;;28.65;72.77
70954;BME280;58618;47.490;8.736;2023-08-12T07:18:52;96826.94;;;27.43;83.67
70954;BME280;58618;47.490;8.736;2023-08-12T07:21:39;96831.00;;;26.13;97.67
70954;BME280;58618;47.490;8.736;2023-08-12T07:24:27;96831.19;;;27.58;86.37
70954;BME280;58618;47.490;8.736;2023-08-12T07:27:15;96836.34;;;27.22;90.91
70954;BME280;58618;47.490;8.736;2023-08-12T07:30:02;96829.34;;;26.89;99.64
70954;BME280;58618;47.490;8.736;2023-08-12T07:32:51;96820.44;;;27.29;84.37
70954;BME280;58618;47.490;8.736;2023-08-12T07:35:38;96830.66;;;26.15;100.00
70954;BME280;58618;47.490;8.736;2023-08-12T07:38:26;96829.53;;;27.28;100.00
70954;BME280;58618;47.490;8.736;2023-08-12T07:41:13;96843.72;;;25.97;100.00
70954;BME280;58618;47.490;8.736;2023-08-12T07:44:00;96841.47;;;25.99;100.00
70954;BME280;58618;47.490;8.736;2023-08-12T07:46:47;96838.28;;;25.83;100.00
70954;BME280;58618;47.490;8.736;2023-08-12T07:49:36;96825.06;;;25.83;100.00
70954;BME280;58618;47.490;8.736;2023-08-12T07:52:23;96828.72;;;26.56;100.00
70954;BME280;58618;47.490;8.736;2023-08-12T07:55:11;96828.28;;;26.46;100.00
70954;BME280;58618;47.490;8.736;2023-08-12T07:57:59;96829.75;;;26.37;100.00
70954;BME280;58618;47.490;8.736;2023-08-12T08:00:46;96828.47;;;25.83;100.00
70954;BME280;58618;47.490;8.736;2023-08-12T08:03:33;96835.31;;;25.88;100.00
70954;BME280;58618;47.490;8.736;2023-08-12T08:06:23;96836.94;;;26.91;100.00
70954;BME280;58618;47.490;8.736;2023-08-12T08:09:10;96826.63;;;26.82;100.00
70954;BME280;58618;47.490;8.736;2023-08-12T08:11:57;96828.06;;;27.38;100.00
70954;BME280;58618;47.490;8.736;2023-08-12T08:14:45;96831.31;;;28.22;85.87
70954;BME280;58618;47.490;8.736;2023-08-12T08:17:32;96826.50;;;27.26;97.51
70954;BME280;58618;47.490;8.736;2023-08-12T08:20:19;96836.81;;;26.77;100.00
70954;BME280;58618;47.490;8.736;2023-08-12T08:23:08;96837.34;;;28.01;100.00
70954;BME280;58618;47.490;8.736;2023-08-12T08:25:55;96843.00;;;27.85;100.00
70954;BME280;58618;47.490;8.736;2023-08-12T08:28:43;96847.03;;;27.44;100.00
70954;BME280;58618;47.490;8.736;2023-08-12T08:31:30;96844.59;;;27.10;100.00
70954;BME280;58618;47.490;8.736;2023-08-12T08:34:18;96853.25;;;28.11;87.96
70954;BME280;58618;47.490;8.736;2023-08-12T08:37:05;96860.88;;;28.77;83.57
70954;BME280;58618;47.490;8.736;2023-08-12T08:39:54;96861.66;;;28.74;87.50
70954;BME280;58618;47.490;8.736;2023-08-12T08:42:43;96863.91;;;28.40;80.21
70954;BME280;58618;47.490;8.736;2023-08-12T08:45:32;96868.47;;;28.57;86.09
70954;BME280;58618;47.490;8.736;2023-08-12T08:48:20;96856.94;;;27.54;92.34
70954;BME280;58618;47.490;8.736;2023-08-12T08:51:08;96862.25;;;26.88;100.00
70954;BME280;58618;47.490;8.736;2023-08-12T08:53:56;96865.91;;;26.73;100.00
70954;BME280;58618;47.490;8.736;2023-08-12T08:56:46;96878.13;;;26.37;100.00
70954;BME280;58618;47.490;8.736;2023-08-12T08:59:35;96878.94;;;26.08;100.00
70954;BME280;58618;47.490;8.736;2023-08-12T09:02:23;96882.19;;;25.91;100.00
70954;BME280;58618;47.490;8.736;2023-08-12T09:05:11;96879.13;;;26.70;100.00
70954;BME280;58618;47.490;8.736;2023-08-12T09:08:01;96890.84;;;27.30;100.00
70954;BME280;58618;47.490;8.736;2023-08-12T09:10:50;96885.91;;;28.44;100.00
70954;BME280;58618;47.490;8.736;2023-08-12T09:13:39;96882.63;;;29.76;75.36
70954;BME280;58618;47.490;8.736;2023-08-12T09:16:26;96894.66;;;30.61;67.01
70954;BME280;58618;47.490;8.736;2023-08-12T09:19:13;96885.31;;;31.24;62.91
70954;BME280;58618;47.490;8.736;2023-08-12T09:22:02;96878.97;;;31.11;62.45
70954;BME280;58618;47.490;8.736;2023-08-12T09:24:50;96886.47;;;29.58;74.19
70954;BME280;58618;47.490;8.736;2023-08-12T09:27:37;96881.94;;;29.55;68.28
70954;BME280;58618;47.490;8.736;2023-08-12T09:30:28;96876.75;;;29.05;74.23
70954;BME280;58618;47.490;8.736;2023-08-12T09:33:24;96871.78;;;29.14;78.44
70954;BME280;58618;47.490;8.736;2023-08-12T09:36:11;96881.34;;;28.62;80.72
70954;BME280;58618;47.490;8.736;2023-08-12T09:38:58;96897.28;;;28.23;81.21
70954;BME280;58618;47.490;8.736;2023-08-12T09:41:46;96901.03;;;29.11;70.10
70954;BME280;58618;47.490;8.736;2023-08-12T09:44:34;96887.34;;;29.26;69.62
70954;BME280;58618;47.490;8.736;2023-08-12T09:47:25;96890.44;;;28.61;75.70
70954;BME280;58618;47.490;8.736;2023-08-12T09:50:12;96901.06;;;28.40;74.21
70954;BME280;58618;47.490;8.736;2023-08-12T09:53:01;96912.94;;;27.56;82.40
70954;BME280;58618;47.490;8.736;2023-08-12T09:55:52;96911.88;;;27.02;85.67
70954;BME280;58618;47.490;8.736;2023-08-12T09:58:40;96921.31;;;26.48;94.31
70954;BME280;58618;47.490;8.736;2023-08-12T10:01:29;96924.78;;;26.19;100.00
70954;BME280;58618;47.490;8.736;2023-08-12T10:04:21;96930.06;;;26.19;100.00
70954;BME280;58618;47.490;8.736;2023-08-12T10:07:11;96920.44;;;26.37;100.00
70954;BME280;58618;47.490;8.736;2023-08-12T10:09:59;96911.16;;;26.17;100.00
70954;BME280;58618;47.490;8.736;2023-08-12T10:12:47;96907.06;;;26.23;100.00
70954;BME280;58618;47.490;8.736;2023-08-12T10:15:36;96913.19;;;26.27;100.00
70954;BME280;58618;47.490;8.736;2023-08-12T10:18:23;96901.19;;;26.88;98.27
70954;BME280;58618;47.490;8.736;2023-08-12T10:21:14;96905.59;;;26.70;100.00
70954;BME280;58618;47.490;8.736;2023-08-12T10:24:02;96896.94;;;27.35;94.72
70954;BME280;58618;47.490;8.736;2023-08-12T10:26:51;96898.47;;;27.39;96.91
70954;BME280;58618;47.490;8.736;2023-08-12T10:29:42;96899.00;;;27.73;93.21
70954;BME280;58618;47.490;8.736;2023-08-12T10:32:30;96894.91;;;27.93;83.98
70954;BME280;58618;47.490;8.736;2023-08-12T10:35:18;96894.06;;;27.68;90.36
70954;BME280;58618;47.490;8.736;2023-08-12T10:38:07;96899.16;;;27.25;87.64
70954;BME280;58618;47.490;8.736;2023-08-12T10:41:14;96912.28;;;27.04;94.14
70954;BME280;58618;47.490;8.736;2023-08-12T10:44:05;96912.00;;;27.20;89.73
70954;BME280;58618;47.490;8.736;2023-08-12T10:46:53;96917.53;;;26.97;93.63
70954;BME280;58618;47.490;8.736;2023-08-12T10:49:43;96920.63;;;26.59;98.16
70954;BME280;58618;47.490;8.736;2023-08-12T10:52:32;96918.41;;;26.24;94.80
70954;BME280;58618;47.490;8.736;2023-08-12T10:55:23;96926.06;;;26.32;100.00
70954;BME280;58618;47.490;8.736;2023-08-12T10:58:24;96927.88;;;26.25;100.00
70954;BME280;58618;47.490;8.736;2023-08-12T11:01:13;96928.06;;;26.42;96.57
70954;BME280;58618;47.490;8.736;2023-08-12T11:04:16;96922.53;;;26.62;98.41
70954;BME280;58618;47.490;8.736;2023-08-12T11:07:14;96926.44;;;26.34;100.00
70954;BME280;58618;47.490;8.736;2023-08-12T11:10:10;96923.63;;;26.54;100.00
70954;BME280;58618;47.490;8.736;2023-08-12T11:13:00;96924.13;;;26.26;100.00
70954;BME280;58618;47.490;8.736;2023-08-12T11:15:48;96926.59;;;25.78;100.00
70954;BME280;58618;47.490;8.736;2023-08-12T11:18:36;96922.59;;;25.58;100.00
70954;BME280;58618;47.490;8.736;2023-08-12T11:21:23;96926.19;;;25.46;100.00
70954;BME280;58618;47.490;8.736;2023-08-12T11:24:11;96916.97;;;25.07;100.00
70954;BME280;58618;47.490;8.736;2023-08-12T11:26:59;96911.63;;;24.31;100.00
70954;BME280;58618;47.490;8.736;2023-08-12T11:29:49;96897.72;;;23.73;100.00
70954;BME280;58618;47.490;8.736;2023-08-12T11:32:37;96896.16;;;23.34;100.00
70954;BME280;58618;47.490;8.736;2023-08-12T11:35:25;96884.03;;;22.94;100.00
70954;BME280;58618;47.490;8.736;2023-08-12T11:38:15;96884.28;;;22.58;100.00
70954;BME280;58618;47.490;8.736;2023-08-12T11:41:02;96890.47;;;22.50;100.00
70954;BME280;58618;47.490;8.736;2023-08-12T11:43:49;96904.69;;;22.17;100.00
70954;BME280;58618;47.490;8.736;2023-08-12T11:46:38;96890.38;;;22.15;100.00
70954;BME280;58618;47.490;8.736;2023-08-12T11:49:25;96861.72;;;21.82;100.00
70954;BME280;58618;47.490;8.736;2023-08-12T11:52:13;96868.13;;;21.97;100.00
70954;BME280;58618;47.490;8.736;2023-08-12T11:55:01;96858.09;;;22.14;100.00
70954;BME280;58618;47.490;8.736;2023-08-12T11:57:50;96850.78;;;22.55;100.00
70954;BME280;58618;47.490;8.736;2023-08-12T12:00:38;96865.41;;;23.03;100.00
70954;BME280;58618;47.490;8.736;2023-08-12T12:03:30;96877.31;;;23.32;100.00
70954;BME280;58618;47.490;8.736;2023-08-12T12:06:17;96880.53;;;23.79;100.00
70954;BME280;58618;47.490;8.736;2023-08-12T12:09:06;96884.50;;;24.31;100.00
70954;BME280;58618;47.490;8.736;2023-08-12T12:11:55;96869.34;;;24.73;100.00
70954;BME280;58618;47.490;8.736;2023-08-12T12:14:43;96860.31;;;24.74;100.00
70954;BME280;58618;47.490;8.736;2023-08-12T12:17:30;96869.00;;;25.01;100.00
70954;BME280;58618;47.490;8.736;2023-08-12T12:20:20;96862.09;;;25.23;100.00
70954;BME280;58618;47.490;8.736;2023-08-12T12:23:07;96854.59;;;25.25;100.00
70954;BME280;58618;47.490;8.736;2023-08-12T12:25:57;96852.88;;;25.40;100.00
70954;BME280;58618;47.490;8.736;2023-08-12T12:28:45;96849.63;;;25.20;100.00
70954;BME280;58618;47.490;8.736;2023-08-12T12:31:33;96854.28;;;25.30;100.00
70954;BME280;58618;47.490;8.736;2023-08-12T12:34:21;96844.72;;;25.48;100.00
70954;BME280;58618;47.490;8.736;2023-08-12T12:37:10;96850.00;;;25.48;100.00
70954;BME280;58618;47.490;8.736;2023-08-12T12:39:57;96843.38;;;25.65;100.00
70954;BME280;58618;47.490;8.736;2023-08-12T12:42:44;96844.16;;;25.65;100.00
70954;BME280;58618;47.490;8.736;2023-08-12T12:45:32;96840.91;;;25.49;100.00
70954;BME280;58618;47.490;8.736;2023-08-12T12:48:19;96833.44;;;25.55;100.00
70954;BME280;58618;47.490;8.736;2023-08-12T12:51:06;96825.72;;;25.73;100.00
70954;BME280;58618;47.490;8.736;2023-08-12T12:53:55;96826.16;;;25.78;100.00
70954;BME280;58618;47.490;8.736;2023-08-12T12:56:43;96829.63;;;25.86;100.00
70954;BME280;58618;47.490;8.736;2023-08-12T12:59:30;96825.91;;;25.90;100.00
70954;BME280;58618;47.490;8.736;2023-08-12T13:02:18;96826.28;;;25.89;100.00
70954;BME280;58618;47.490;8.736;2023-08-12T13:05:05;96832.25;;;25.82;100.00
70954;BME280;58618;47.490;8.736;2023-08-12T13:07:52;96824.06;;;25.94;100.00
70954;BME280;58618;47.490;8.736;2023-08-12T13:10:41;96818.34;;;25.89;100.00
70954;BME280;58618;47.490;8.736;2023-08-12T13:13:29;96819.53;;;25.95;100.00
70954;BME280;58618;47.490;8.736;2023-08-12T13:16:16;96809.72;;;25.95;100.00
70954;BME280;58618;47.490;8.736;2023-08-12T13:19:04;96807.50;;;26.01;100.00
70954;BME280;58618;47.490;8.736;2023-08-12T13:21:51;96815.47;;;26.08;100.00
70954;BME280;58618;47.490;8.736;2023-08-12T13:24:38;96817.78;;;26.10;100.00
70954;BME280;58618;47.490;8.736;2023-08-12T13:27:27;96802.31;;;26.12;100.00
70954;BME280;58618;47.490;8.736;2023-08-12T13:30:14;96803.97;;;26.27;100.00
70954;BME280;58618;47.490;8.736;2023-08-12T13:33:02;96797.81;;;26.19;100.00
70954;BME280;58618;47.490;8.736;2023-08-12T13:35:50;96786.44;;;26.12;100.00
70954;BME280;58618;47.490;8.736;2023-08-12T13:38:37;96783.41;;;26.13;100.00
70954;BME280;58618;47.490;8.736;2023-08-12T13:41:24;96775.81;;;26.08;100.00
70954;BME280;58618;47.490;8.736;2023-08-12T13:44:14;96771.50;;;26.33;100.00
70954;BME280;58618;47.490;8.736;2023-08-12T13:47:01;96768.91;;;26.40;100.00
70954;BME280;58618;47.490;8.736;2023-08-12T13:49:48;96769.31;;;26.42;100.00
70954;BME280;58618;47.490;8.736;2023-08-12T13:52:35;96763.38;;;26.63;100.00
70954;BME280;58618;47.490;8.736;2023-08-12T13:55:23;96763.81;;;26.76;100.00
70954;BME280;58618;47.490;8.736;2023-08-12T13:58:11;96766.47;;;26.76;100.00
70954;BME280;58618;47.490;8.736;2023-08-12T14:01:00;96765.78;;;26.86;100.00
70954;BME280;58618;47.490;8.736;2023-08-12T14:03:48;96752.25;;;27.05;100.00
70954;BME280;58618;47.490;8.736;2023-08-12T14:06:35;96765.88;;;27.07;100.00
70954;BME280;58618;47.490;8.736;2023-08-12T14:09:22;96765.91;;;27.14;100.00
70954;BME280;58618;47.490;8.736;2023-08-12T14:12:10;96770.53;;;27.46;99.94
70954;BME280;58618;47.490;8.736;2023-08-12T14:14:57;96762.28;;;27.72;100.00
70954;BME280;58618;47.490;8.736;2023-08-12T14:17:46;96770.63;;;27.88;100.00
70954;BME280;58618;47.490;8.736;2023-08-12T14:20:33;96761.53;;;28.10;97.46
70954;BME280;58618;47.490;8.736;2023-08-12T14:23:20;96760.00;;;28.02;100.00
70954;BME280;58618;47.490;8.736;2023-08-12T14:26:09;96758.53;;;27.91;100.00
70954;BME280;58618;47.490;8.736;2023-08-12T14:28:56;96766.84;;;27.75;98.93
70954;BME280;58618;47.490;8.736;2023-08-12T14:31:43;96753.13;;;27.45;100.00
70954;BME280;58618;47.490;8.736;2023-08-12T14:34:32;96741.81;;;27.55;100.00
70954;BME280;58618;47.490;8.736;2023-08-12T14:37:19;96744.75;;;27.21;100.00
70954;BME280;58618;47.490;8.736;2023-08-12T14:40:07;96743.00;;;26.71;100.00
70954;BME280;58618;47.490;8.736;2023-08-12T14:42:55;96737.56;;;26.42;100.00